createdAt,value
2018-09-20T00:01:28.126Z,1013.51
2018-09-20T00:02:28.123Z,1013.45
2018-09-20T00:03:28.127Z,1013.50
2018-09-20T00:04:28.122Z,1013.46
2018-09-20T00:05:28.114Z,1013.39
2018-09-20T00:06:28.113Z,1013.43
2018-09-20T00:07:28.119Z,1013.45
2018-09-20T00:08:28.114Z,1013.39
2018-09-20T00:09:28.107Z,1013.40
2018-09-20T00:10:28.106Z,1013.38
2018-09-20T00:11:28.105Z,1013.39
2018-09-20T00:12:28.102Z,1013.43
2018-09-20T00:13:28.104Z,1013.40
2018-09-20T00:14:28.102Z,1013.42
2018-09-20T00:15:28.101Z,1013.39
2018-09-20T00:16:28.100Z,1013.40
2018-09-20T00:17:28.092Z,1013.37
2018-09-20T00:18:28.091Z,1013.35
2018-09-20T00:19:28.089Z,1013.32
2018-09-20T00:20:28.088Z,1013.34
2018-09-20T00:21:28.089Z,1013.29
2018-09-20T00:22:28.087Z,1013.31
2018-09-20T00:23:28.082Z,1013.35
2018-09-20T00:24:28.079Z,1013.26
2018-09-20T00:25:28.082Z,1013.23
2018-09-20T00:26:28.080Z,1013.21
2018-09-20T00:27:28.080Z,1013.21
2018-09-20T00:28:28.078Z,1013.26
2018-09-20T00:29:28.070Z,1013.24
2018-09-20T00:30:28.069Z,1013.21
2018-09-20T00:31:28.067Z,1013.19
2018-09-20T00:32:28.069Z,1013.20
2018-09-20T00:33:28.068Z,1013.18
2018-09-20T00:34:28.065Z,1013.15
2018-09-20T00:35:28.063Z,1013.14
2018-09-20T00:36:28.062Z,1013.13
2018-09-20T00:37:28.054Z,1013.10
2018-09-20T00:38:28.053Z,1013.18
2018-09-20T00:39:28.056Z,1013.16
2018-09-20T00:40:28.054Z,1013.15
2018-09-20T00:41:28.048Z,1013.13
2018-09-20T00:42:28.046Z,1013.12
2018-09-20T00:43:28.044Z,1013.14
2018-09-20T00:44:28.042Z,1013.15
2018-09-20T00:45:28.044Z,1013.14
2018-09-20T00:46:28.043Z,1013.13
2018-09-20T00:47:28.040Z,1013.09
2018-09-20T00:48:28.038Z,1013.12
2018-09-20T00:49:28.032Z,1013.09
2018-09-20T00:50:28.034Z,1013.08
2018-09-20T00:51:28.029Z,1013.10
2018-09-20T00:52:28.026Z,1013.10
2018-09-20T00:53:28.028Z,1013.06
2018-09-20T00:54:28.026Z,1013.09
2018-09-20T00:55:28.019Z,1013.06
2018-09-20T00:56:28.017Z,1013.13
2018-09-20T00:57:28.020Z,1013.15
2018-09-20T00:58:28.018Z,1013.16
2018-09-20T00:59:28.017Z,1013.14
2018-09-20T01:00:28.017Z,1013.16
2018-09-20T01:01:28.006Z,1013.14
2018-09-20T01:02:28.005Z,1013.14
2018-09-20T01:03:28.003Z,1013.21
2018-09-20T01:04:28.002Z,1013.18
2018-09-20T01:05:28.003Z,1013.20
2018-09-20T01:06:28.002Z,1013.20
2018-09-20T01:07:27.999Z,1013.20
2018-09-20T01:08:27.998Z,1013.22
2018-09-20T01:09:27.990Z,1013.18
2018-09-20T01:10:27.988Z,1013.21
2018-09-20T01:11:27.991Z,1013.21
2018-09-20T01:12:27.988Z,1013.24
2018-09-20T01:13:27.981Z,1013.19
2018-09-20T01:14:27.980Z,1013.20
2018-09-20T01:15:27.977Z,1013.25
2018-09-20T01:16:27.974Z,1013.18
2018-09-20T01:17:27.977Z,1013.21
2018-09-20T01:18:27.977Z,1013.21
2018-09-20T01:19:27.972Z,1013.20
2018-09-20T01:20:27.971Z,1013.22
2018-09-20T01:21:27.963Z,1013.20
2018-09-20T01:22:27.960Z,1013.22
2018-09-20T01:23:27.959Z,1013.18
2018-09-20T01:24:27.956Z,1013.20
2018-09-20T01:25:27.958Z,1013.20
2018-09-20T01:26:27.957Z,1013.22
2018-09-20T01:27:27.949Z,1013.26
2018-09-20T01:28:27.947Z,1013.23
2018-09-20T01:29:27.949Z,1013.26
2018-09-20T01:30:27.946Z,1013.25
2018-09-20T01:31:27.944Z,1013.25
2018-09-20T01:32:27.941Z,1013.28
2018-09-20T01:33:27.934Z,1013.30
2018-09-20T01:34:27.932Z,1013.32
2018-09-20T01:35:27.945Z,1013.28
2018-09-20T01:36:27.934Z,1013.35
2018-09-20T01:37:27.928Z,1013.35
2018-09-20T01:38:27.928Z,1013.38
2018-09-20T01:39:27.923Z,1013.35
2018-09-20T01:40:27.921Z,1013.36
2018-09-20T01:41:27.913Z,1013.35
2018-09-20T01:42:27.910Z,1013.37
2018-09-20T01:43:27.913Z,1013.32
2018-09-20T01:44:27.910Z,1013.32
2018-09-20T01:45:27.905Z,1013.27
2018-09-20T01:46:27.900Z,1013.29
2018-09-20T01:47:27.898Z,1013.30
2018-09-20T01:48:27.894Z,1013.32
2018-09-20T01:49:27.896Z,1013.35
2018-09-20T01:50:27.895Z,1013.35
2018-09-20T01:51:27.899Z,1013.31
2018-09-20T01:52:27.888Z,1013.33
2018-09-20T01:53:27.883Z,1013.32
2018-09-20T01:54:27.879Z,1013.28
2018-09-20T01:55:27.875Z,1013.30
2018-09-20T01:56:27.876Z,1013.30
2018-09-20T01:57:27.877Z,1013.26
2018-09-20T01:58:27.872Z,1013.24
2018-09-20T01:59:27.865Z,1013.28
2018-09-20T02:00:27.863Z,1013.29
2018-09-20T02:01:27.865Z,1013.26
2018-09-20T02:02:27.862Z,1013.28
2018-09-20T02:03:27.858Z,1013.21
2018-09-20T02:04:27.855Z,1013.28
2018-09-20T02:05:27.849Z,1013.22
2018-09-20T02:06:27.848Z,1013.24
2018-09-20T02:07:27.843Z,1013.21
2018-09-20T02:08:27.841Z,1013.25
2018-09-20T02:09:27.841Z,1013.20
2018-09-20T02:10:27.838Z,1013.23
2018-09-20T02:11:27.836Z,1013.18
2018-09-20T02:12:27.835Z,1013.18
2018-09-20T02:13:27.827Z,1013.20
2018-09-20T02:14:27.824Z,1013.24
2018-09-20T02:15:27.832Z,1013.19
2018-09-20T02:16:27.825Z,1013.18
2018-09-20T02:17:27.815Z,1013.21
2018-09-20T02:18:27.813Z,1013.22
2018-09-20T02:19:27.811Z,1013.21
2018-09-20T02:20:27.809Z,1013.20
2018-09-20T02:21:27.817Z,1013.22
2018-09-20T02:22:27.807Z,1013.26
2018-09-20T02:23:27.807Z,1013.24
2018-09-20T02:24:27.801Z,1013.24
2018-09-20T02:25:27.796Z,1013.23
2018-09-20T02:26:27.793Z,1013.28
2018-09-20T02:27:27.791Z,1013.29
2018-09-20T02:28:27.787Z,1013.32
2018-09-20T02:29:27.789Z,1013.34
2018-09-20T02:30:27.787Z,1013.36
2018-09-20T02:31:27.780Z,1013.37
2018-09-20T02:32:27.777Z,1013.34
2018-09-20T02:33:27.778Z,1013.33
2018-09-20T02:34:27.777Z,1013.35
2018-09-20T02:35:27.773Z,1013.34
2018-09-20T02:36:27.787Z,1013.40
2018-09-20T02:37:27.763Z,1013.43
2018-09-20T02:38:27.762Z,1013.46
2018-09-20T02:39:27.759Z,1013.41
2018-09-20T02:40:27.756Z,1013.42
2018-09-20T02:41:27.759Z,1013.39
2018-09-20T02:42:27.755Z,1013.37
2018-09-20T02:43:27.753Z,1013.38
2018-09-20T02:44:27.752Z,1013.35
2018-09-20T02:45:27.741Z,1013.36
2018-09-20T02:46:27.743Z,1013.30
2018-09-20T02:47:27.747Z,1013.31
2018-09-20T02:48:27.740Z,1013.36
2018-09-20T02:49:27.731Z,1013.31
2018-09-20T02:50:27.728Z,1013.38
2018-09-20T02:51:27.726Z,1013.34
2018-09-20T02:52:27.724Z,1013.31
2018-09-20T02:53:27.726Z,1013.31
2018-09-20T02:54:27.722Z,1013.24
2018-09-20T02:55:27.720Z,1013.33
2018-09-20T02:56:27.716Z,1013.26
2018-09-20T02:57:27.711Z,1013.28
2018-09-20T02:58:27.706Z,1013.28
2018-09-20T02:59:27.704Z,1013.24
2018-09-20T03:00:27.701Z,1013.24
2018-09-20T03:01:27.704Z,1013.22
2018-09-20T03:02:27.704Z,1013.23
2018-09-20T03:03:27.693Z,1013.21
2018-09-20T03:04:27.688Z,1013.21
2018-09-20T03:05:27.690Z,1013.21
2018-09-20T03:06:27.690Z,1013.17
2018-09-20T03:07:27.685Z,1013.16
2018-09-20T03:08:27.681Z,1013.17
2018-09-20T03:09:27.673Z,1013.17
2018-09-20T03:10:27.671Z,1013.21
2018-09-20T03:11:27.669Z,1013.13
2018-09-20T03:12:27.667Z,1013.18
2018-09-20T03:13:27.677Z,1013.14
2018-09-20T03:14:27.664Z,1013.13
2018-09-20T03:15:27.663Z,1013.14
2018-09-20T03:16:27.660Z,1013.17
2018-09-20T03:17:27.651Z,1013.14
2018-09-20T03:18:27.650Z,1013.18
2018-09-20T03:19:27.652Z,1013.17
2018-09-20T03:20:27.649Z,1013.19
2018-09-20T03:21:27.639Z,1013.21
2018-09-20T03:22:27.637Z,1013.21
2018-09-20T03:23:27.638Z,1013.26
2018-09-20T03:24:27.631Z,1013.23
2018-09-20T03:25:27.633Z,1013.26
2018-09-20T03:26:27.636Z,1013.22
2018-09-20T03:27:27.628Z,1013.20
2018-09-20T03:28:27.626Z,1013.20
2018-09-20T03:29:27.617Z,1013.18
2018-09-20T03:30:27.625Z,1013.20
2018-09-20T03:31:27.611Z,1013.25
2018-09-20T03:32:27.612Z,1013.19
2018-09-20T03:33:27.609Z,1013.17
2018-09-20T03:34:27.606Z,1013.17
2018-09-20T03:35:27.616Z,1013.19
2018-09-20T03:36:27.596Z,1013.18
2018-09-20T03:37:27.605Z,1013.19
2018-09-20T03:38:27.594Z,1013.16
2018-09-20T03:39:27.593Z,1013.18
2018-09-20T03:40:27.589Z,1013.16
2018-09-20T03:41:27.581Z,1013.19
2018-09-20T03:42:27.579Z,1013.16
2018-09-20T03:43:27.576Z,1013.18
2018-09-20T03:44:27.574Z,1013.18
2018-09-20T03:45:27.575Z,1013.16
2018-09-20T03:46:27.571Z,1013.13
2018-09-20T03:47:27.568Z,1013.19
2018-09-20T03:48:27.566Z,1013.24
2018-09-20T03:49:27.558Z,1013.24
2018-09-20T03:50:27.554Z,1013.18
2018-09-20T03:51:27.561Z,1013.22
2018-09-20T03:52:27.553Z,1013.20
2018-09-20T03:53:27.545Z,1013.22
2018-09-20T03:54:27.542Z,1013.24
2018-09-20T03:55:27.540Z,1013.19
2018-09-20T03:56:27.538Z,1013.16
2018-09-20T03:57:27.560Z,1013.20
2018-09-20T03:58:27.536Z,1013.18
2018-09-20T03:59:27.533Z,1013.17
2018-09-20T04:00:27.530Z,1013.17
2018-09-20T04:01:27.524Z,1013.10
2018-09-20T04:02:27.520Z,1013.08
2018-09-20T04:03:27.516Z,1013.08
2018-09-20T04:04:27.512Z,1013.08
2018-09-20T04:05:27.526Z,1013.11
2018-09-20T04:06:27.514Z,1013.09
2018-09-20T04:07:27.504Z,1013.06
2018-09-20T04:08:27.502Z,1013.08
2018-09-20T04:09:27.517Z,1013.06
2018-09-20T04:10:27.500Z,1013.09
2018-09-20T04:11:27.496Z,1013.12
2018-09-20T04:12:27.495Z,1013.05
2018-09-20T04:13:27.485Z,1013.07
2018-09-20T04:14:27.483Z,1013.09
2018-09-20T04:15:27.481Z,1013.09
2018-09-20T04:16:27.482Z,1013.08
2018-09-20T04:17:27.480Z,1013.07
2018-09-20T04:18:27.476Z,1013.08
2018-09-20T04:19:27.472Z,1013.10
2018-09-20T04:20:27.472Z,1013.11
2018-09-20T04:21:27.462Z,1013.08
2018-09-20T04:22:27.458Z,1013.06
2018-09-20T04:23:27.459Z,1013.05
2018-09-20T04:24:27.458Z,1013.04
2018-09-20T04:25:27.450Z,1013.05
2018-09-20T04:26:27.446Z,1013.02
2018-09-20T04:27:27.449Z,1013.02
2018-09-20T04:28:27.442Z,1013.02
2018-09-20T04:29:27.445Z,1013.02
2018-09-20T04:30:27.440Z,1013.02
2018-09-20T04:31:27.435Z,1013.07
2018-09-20T04:32:27.433Z,1013.11
2018-09-20T04:33:27.424Z,1013.12
2018-09-20T04:34:27.423Z,1013.12
2018-09-20T04:35:27.421Z,1013.11
2018-09-20T04:36:27.418Z,1013.10
2018-09-20T04:37:27.422Z,1013.15
2018-09-20T04:38:27.417Z,1013.15
2018-09-20T04:39:27.408Z,1013.12
2018-09-20T04:40:27.406Z,1013.15
2018-09-20T04:41:27.412Z,1013.15
2018-09-20T04:42:27.405Z,1013.11
2018-09-20T04:43:27.402Z,1013.16
2018-09-20T04:44:27.400Z,1013.14
2018-09-20T04:45:27.391Z,1013.15
2018-09-20T04:46:27.389Z,1013.19
2018-09-20T04:47:27.386Z,1013.18
2018-09-20T04:48:27.382Z,1013.18
2018-09-20T04:49:27.384Z,1013.18
2018-09-20T04:50:27.380Z,1013.15
2018-09-20T04:51:27.383Z,1013.16
2018-09-20T04:52:27.375Z,1013.17
2018-09-20T04:53:27.427Z,1013.20
2018-09-20T04:54:27.364Z,1013.16
2018-09-20T04:55:27.367Z,1013.15
2018-09-20T04:56:27.364Z,1013.17
2018-09-20T04:57:27.354Z,1013.17
2018-09-20T04:58:27.355Z,1013.15
2018-09-20T04:59:27.352Z,1013.08
2018-09-20T05:00:27.347Z,1013.14
2018-09-20T05:01:27.346Z,1013.16
2018-09-20T05:02:27.344Z,1013.17
2018-09-20T05:03:27.341Z,1013.15
2018-09-20T05:04:27.340Z,1013.20
2018-09-20T05:05:27.330Z,1013.18
2018-09-20T05:06:27.327Z,1013.14
2018-09-20T05:07:27.329Z,1013.19
2018-09-20T05:08:27.321Z,1013.15
2018-09-20T05:09:27.353Z,1013.15
2018-09-20T05:10:27.322Z,1013.09
2018-09-20T05:11:27.314Z,1013.12
2018-09-20T05:12:27.311Z,1013.12
2018-09-20T05:13:27.311Z,1013.13
2018-09-20T05:14:27.315Z,1013.12
2018-09-20T05:15:27.304Z,1013.12
2018-09-20T05:16:27.302Z,1013.13
2018-09-20T05:17:27.294Z,1013.13
2018-09-20T05:18:27.289Z,1013.11
2018-09-20T05:19:27.287Z,1013.20
2018-09-20T05:20:27.286Z,1013.18
2018-09-20T05:21:27.286Z,1013.17
2018-09-20T05:22:27.282Z,1013.16
2018-09-20T05:23:27.318Z,1013.14
2018-09-20T05:24:27.277Z,1013.14
2018-09-20T05:25:27.269Z,1013.11
2018-09-20T05:26:27.268Z,1013.15
2018-09-20T05:27:27.268Z,1013.15
2018-09-20T05:28:27.268Z,1013.16
2018-09-20T05:29:27.257Z,1013.13
2018-09-20T05:30:27.254Z,1013.15
2018-09-20T05:31:27.250Z,1013.16
2018-09-20T05:32:27.247Z,1013.13
2018-09-20T05:33:27.250Z,1013.18
2018-09-20T05:34:27.244Z,1013.10
2018-09-20T05:35:27.275Z,1013.05
2018-09-20T05:36:27.241Z,1013.08
2018-09-20T05:37:27.235Z,1013.09
2018-09-20T05:38:27.232Z,1013.03
2018-09-20T05:39:27.231Z,1013.09
2018-09-20T05:40:27.224Z,1013.10
2018-09-20T05:41:27.224Z,1013.12
2018-09-20T05:42:27.223Z,1013.12
2018-09-20T05:43:27.241Z,1013.20
2018-09-20T05:44:27.213Z,1013.17
2018-09-20T05:45:27.217Z,1013.21
2018-09-20T05:46:27.210Z,1013.17
2018-09-20T05:47:27.209Z,1013.21
2018-09-20T05:48:27.206Z,1013.22
2018-09-20T05:49:27.198Z,1013.15
2018-09-20T05:50:27.199Z,1013.19
2018-09-20T05:51:27.193Z,1013.20
2018-09-20T05:52:27.191Z,1013.19
2018-09-20T05:53:27.197Z,1013.23
2018-09-20T05:54:27.191Z,1013.21
2018-09-20T05:55:27.195Z,1013.26
2018-09-20T05:56:27.185Z,1013.21
2018-09-20T05:57:27.181Z,1013.18
2018-09-20T05:58:27.176Z,1013.22
2018-09-20T05:59:27.180Z,1013.19
2018-09-20T06:00:27.177Z,1013.21
2018-09-20T06:01:27.170Z,1013.20
2018-09-20T06:02:27.168Z,1013.20
2018-09-20T06:03:27.165Z,1013.23
2018-09-20T06:04:27.164Z,1013.18
2018-09-20T06:05:27.174Z,1013.18
2018-09-20T06:06:27.164Z,1013.20
2018-09-20T06:07:27.163Z,1013.27
2018-09-20T06:08:27.161Z,1013.27
2018-09-20T06:09:27.153Z,1013.20
2018-09-20T06:10:27.151Z,1013.28
2018-09-20T06:11:27.148Z,1013.25
2018-09-20T06:12:27.145Z,1013.32
2018-09-20T06:13:27.149Z,1013.32
2018-09-20T06:14:27.145Z,1013.31
2018-09-20T06:15:27.140Z,1013.28
2018-09-20T06:16:27.140Z,1013.32
2018-09-20T06:17:27.140Z,1013.38
2018-09-20T06:18:27.139Z,1013.35
2018-09-20T06:19:27.139Z,1013.35
2018-09-20T06:20:27.138Z,1013.30
2018-09-20T06:21:27.131Z,1013.30
2018-09-20T06:22:27.129Z,1013.27
2018-09-20T06:23:27.129Z,1013.32
2018-09-20T06:24:27.129Z,1013.30
2018-09-20T06:25:27.131Z,1013.31
2018-09-20T06:26:27.130Z,1013.33
2018-09-20T06:27:27.130Z,1013.38
2018-09-20T06:28:27.129Z,1013.44
2018-09-20T06:29:27.126Z,1013.45
2018-09-20T06:30:27.124Z,1013.47
2018-09-20T06:31:27.127Z,1013.49
2018-09-20T06:32:27.125Z,1013.55
2018-09-20T06:33:27.119Z,1013.56
2018-09-20T06:34:27.119Z,1013.55
2018-09-20T06:35:27.120Z,1013.55
2018-09-20T06:36:27.120Z,1013.51
2018-09-20T06:37:27.138Z,1013.49
2018-09-20T06:38:27.125Z,1013.51
2018-09-20T06:39:27.122Z,1013.47
2018-09-20T06:40:27.121Z,1013.49
2018-09-20T06:41:27.126Z,1013.48
2018-09-20T06:42:27.128Z,1013.49
2018-09-20T06:43:27.129Z,1013.48
2018-09-20T06:44:27.130Z,1013.46
2018-09-20T06:45:27.124Z,1013.51
2018-09-20T06:46:27.125Z,1013.49
2018-09-20T06:47:27.132Z,1013.49
2018-09-20T06:48:27.133Z,1013.50
2018-09-20T06:49:27.127Z,1013.54
2018-09-20T06:50:27.210Z,1013.58
2018-09-20T06:51:27.131Z,1013.54
2018-09-20T06:52:27.131Z,1013.63
2018-09-20T06:53:27.135Z,1013.62
2018-09-20T06:54:27.136Z,1013.59
2018-09-20T06:55:27.139Z,1013.60
2018-09-20T06:56:27.191Z,1013.64
2018-09-20T06:57:27.137Z,1013.64
2018-09-20T06:58:27.139Z,1013.64
2018-09-20T06:59:27.139Z,1013.65
2018-09-20T07:00:27.141Z,1013.66
2018-09-20T07:01:27.147Z,1013.63
2018-09-20T07:02:27.150Z,1013.68
2018-09-20T07:03:27.146Z,1013.67
2018-09-20T07:04:27.149Z,1013.70
2018-09-20T07:05:27.160Z,1013.71
2018-09-20T07:06:27.160Z,1013.70
2018-09-20T07:07:27.162Z,1013.74
2018-09-20T07:08:27.166Z,1013.70
2018-09-20T07:09:27.165Z,1013.70
2018-09-20T07:10:27.169Z,1013.79
2018-09-20T07:11:27.172Z,1013.75
2018-09-20T07:12:27.176Z,1013.81
2018-09-20T07:13:27.183Z,1013.81
2018-09-20T07:14:27.187Z,1013.75
2018-09-20T07:15:27.197Z,1013.76
2018-09-20T07:16:27.197Z,1013.81
2018-09-20T07:17:27.195Z,1013.77
2018-09-20T07:18:27.200Z,1013.78
2018-09-20T07:19:27.210Z,1013.80
2018-09-20T07:20:27.218Z,1013.79
2018-09-20T07:21:27.212Z,1013.78
2018-09-20T07:22:27.218Z,1013.84
2018-09-20T07:23:27.224Z,1013.81
2018-09-20T07:24:27.232Z,1013.84
2018-09-20T07:25:27.289Z,1013.87
2018-09-20T07:26:27.244Z,1013.84
2018-09-20T07:27:27.249Z,1013.76
2018-09-20T07:28:27.253Z,1013.66
2018-09-20T07:29:27.254Z,1013.82
2018-09-20T07:30:27.261Z,1013.84
2018-09-20T07:31:27.269Z,1013.86
2018-09-20T07:32:27.274Z,1013.92
2018-09-20T07:33:27.281Z,1013.90
2018-09-20T07:34:27.287Z,1013.87
2018-09-20T07:35:27.289Z,1013.89
2018-09-20T07:36:27.295Z,1013.85
2018-09-20T07:37:27.304Z,1013.74
2018-09-20T07:38:27.310Z,1013.89
2018-09-20T07:39:27.316Z,1013.75
2018-09-20T07:40:27.321Z,1013.76
2018-09-20T07:41:27.323Z,1013.83
2018-09-20T07:42:27.329Z,1013.88
2018-09-20T07:43:27.377Z,1013.90
2018-09-20T07:44:27.341Z,1013.86
2018-09-20T07:45:27.352Z,1013.81
2018-09-20T07:46:27.357Z,1013.78
2018-09-20T07:47:27.365Z,1013.77
2018-09-20T07:48:27.369Z,1013.76
2018-09-20T07:49:27.370Z,1013.74
2018-09-20T07:50:27.376Z,1013.69
2018-09-20T07:51:27.385Z,1013.70
2018-09-20T07:52:27.393Z,1013.66
2018-09-20T07:53:27.392Z,1013.61
2018-09-20T07:54:27.397Z,1013.65
2018-09-20T07:55:27.405Z,1013.62
2018-09-20T07:56:27.408Z,1013.67
2018-09-20T07:57:27.418Z,1013.65
2018-09-20T07:58:27.427Z,1013.66
2018-09-20T07:59:27.428Z,1013.67
2018-09-20T08:00:27.432Z,1013.70
2018-09-20T08:01:27.495Z,1013.76
2018-09-20T08:02:27.434Z,1013.72
2018-09-20T08:03:27.443Z,1013.71
2018-09-20T08:04:27.443Z,1013.69
2018-09-20T08:05:27.452Z,1013.62
2018-09-20T08:06:27.456Z,1013.69
2018-09-20T08:07:27.455Z,1013.72
2018-09-20T08:08:27.461Z,1013.82
2018-09-20T08:09:27.468Z,1013.91
2018-09-20T08:10:27.474Z,1013.97
2018-09-20T08:11:27.477Z,1013.83
2018-09-20T08:12:27.482Z,1013.95
2018-09-20T08:13:27.480Z,1013.97
2018-09-20T08:14:27.486Z,1013.93
2018-09-20T08:15:27.490Z,1013.94
2018-09-20T08:16:27.494Z,1013.78
2018-09-20T08:17:27.507Z,1013.78
2018-09-20T08:18:27.509Z,1013.94
2018-09-20T08:19:27.514Z,1014.01
2018-09-20T08:20:27.522Z,1013.77
2018-09-20T08:21:27.571Z,1013.92
2018-09-20T08:22:27.523Z,1014.10
2018-09-20T08:23:27.535Z,1014.11
2018-09-20T08:24:27.540Z,1014.11
2018-09-20T08:25:27.542Z,1014.16
2018-09-20T08:26:27.547Z,1014.14
2018-09-20T08:27:27.556Z,1014.09
2018-09-20T08:28:27.561Z,1013.90
2018-09-20T08:29:27.574Z,1014.13
2018-09-20T08:30:27.581Z,1014.19
2018-09-20T08:31:27.587Z,1014.21
2018-09-20T08:32:27.593Z,1014.23
2018-09-20T08:33:27.594Z,1014.25
2018-09-20T08:34:27.603Z,1014.17
2018-09-20T08:35:27.612Z,1014.09
2018-09-20T08:36:27.632Z,1014.23
2018-09-20T08:37:27.699Z,1014.29
2018-09-20T08:38:27.641Z,1014.27
2018-09-20T08:39:27.646Z,1014.27
2018-09-20T08:40:27.655Z,1014.29
2018-09-20T08:41:27.668Z,1014.31
2018-09-20T08:42:27.677Z,1013.94
2018-09-20T08:43:27.690Z,1014.39
2018-09-20T08:44:27.700Z,1014.33
2018-09-20T08:45:27.703Z,1014.05
2018-09-20T08:46:27.714Z,1014.29
2018-09-20T08:47:27.726Z,1014.36
2018-09-20T08:48:27.736Z,1014.34
2018-09-20T08:49:27.750Z,1014.33
2018-09-20T08:50:27.761Z,1014.41
2018-09-20T08:51:27.774Z,1014.37
2018-09-20T08:52:27.783Z,1014.41
2018-09-20T08:53:27.789Z,1014.41
2018-09-20T08:54:27.801Z,1014.31
2018-09-20T08:55:27.817Z,1014.44
2018-09-20T08:56:27.828Z,1014.41
2018-09-20T08:57:27.833Z,1014.45
2018-09-20T08:58:27.846Z,1014.41
2018-09-20T08:59:27.858Z,1014.39
2018-09-20T09:00:27.871Z,1014.35
2018-09-20T09:01:27.886Z,1014.32
2018-09-20T09:02:27.898Z,1014.29
2018-09-20T09:03:27.911Z,1014.20
2018-09-20T09:04:27.975Z,1014.27
2018-09-20T09:05:27.931Z,1014.23
2018-09-20T09:06:27.943Z,1014.30
2018-09-20T09:07:27.958Z,1014.25
2018-09-20T09:08:27.968Z,1014.20
2018-09-20T09:09:27.985Z,1014.21
2018-09-20T09:10:27.998Z,1014.16
2018-09-20T09:11:28.004Z,1014.19
2018-09-20T09:12:28.019Z,1014.15
2018-09-20T09:13:28.036Z,1014.23
2018-09-20T09:14:28.047Z,1014.18
2018-09-20T09:15:28.059Z,1014.18
2018-09-20T09:16:28.073Z,1014.05
2018-09-20T09:17:28.079Z,1014.09
2018-09-20T09:18:28.097Z,1014.05
2018-09-20T09:19:28.107Z,1014.02
2018-09-20T09:20:28.119Z,1013.98
2018-09-20T09:21:28.141Z,1014.02
2018-09-20T09:22:28.149Z,1014.01
2018-09-20T09:23:28.163Z,1014.01
2018-09-20T09:24:28.176Z,1014.03
2018-09-20T09:25:28.236Z,1013.79
2018-09-20T09:26:28.197Z,1013.79
2018-09-20T09:27:28.214Z,1013.73
2018-09-20T09:28:28.283Z,1013.76
2018-09-20T09:29:28.236Z,1013.69
2018-09-20T09:30:28.248Z,1013.66
2018-09-20T09:31:28.264Z,1013.61
2018-09-20T09:32:28.275Z,1013.89
2018-09-20T09:33:28.290Z,1013.87
2018-09-20T09:34:28.302Z,1013.80
2018-09-20T09:35:28.314Z,1013.79
2018-09-20T09:36:28.325Z,1013.75
2018-09-20T09:37:28.330Z,1013.85
2018-09-20T09:38:28.342Z,1013.70
2018-09-20T09:39:28.356Z,1013.82
2018-09-20T09:40:28.368Z,1013.78
2018-09-20T09:41:28.391Z,1013.60
2018-09-20T09:42:28.393Z,1013.61
2018-09-20T09:43:28.403Z,1013.74
2018-09-20T09:44:28.414Z,1013.73
2018-09-20T09:45:28.427Z,1013.71
2018-09-20T09:46:28.438Z,1013.78
2018-09-20T09:47:28.449Z,1013.75
2018-09-20T09:48:28.463Z,1013.76
2018-09-20T09:49:28.466Z,1013.57
2018-09-20T09:50:28.480Z,1013.53
2018-09-20T09:51:28.489Z,1013.46
2018-09-20T09:52:28.504Z,1013.62
2018-09-20T09:53:28.516Z,1013.55
2018-09-20T09:54:28.548Z,1013.65
2018-09-20T09:55:28.538Z,1013.66
2018-09-20T09:56:28.551Z,1013.66
2018-09-20T09:57:28.557Z,1013.60
2018-09-20T09:58:28.570Z,1013.65
2018-09-20T09:59:28.583Z,1013.61
2018-09-20T10:00:28.597Z,1013.64
2018-09-20T10:01:28.600Z,1013.68
2018-09-20T10:02:28.666Z,1013.70
2018-09-20T10:03:28.622Z,1013.75
2018-09-20T10:04:28.634Z,1013.75
2018-09-20T10:05:28.649Z,1013.77
2018-09-20T10:06:28.661Z,1013.70
2018-09-20T10:07:28.691Z,1013.72
2018-09-20T10:08:28.685Z,1013.74
2018-09-20T10:09:28.694Z,1013.61
2018-09-20T10:10:28.705Z,1013.51
2018-09-20T10:11:28.716Z,1013.46
2018-09-20T10:12:28.731Z,1013.59
2018-09-20T10:13:28.769Z,1013.59
2018-09-20T10:14:28.757Z,1013.60
2018-09-20T10:15:28.765Z,1013.54
2018-09-20T10:16:28.777Z,1013.52
2018-09-20T10:17:28.792Z,1013.37
2018-09-20T10:18:28.806Z,1013.51
2018-09-20T10:19:28.821Z,1013.52
2018-09-20T10:20:28.831Z,1013.50
2018-09-20T10:21:28.837Z,1013.50
2018-09-20T10:22:28.850Z,1013.55
2018-09-20T10:23:28.861Z,1013.56
2018-09-20T10:24:28.874Z,1013.54
2018-09-20T10:25:28.890Z,1013.51
2018-09-20T10:26:28.903Z,1013.45
2018-09-20T10:27:28.914Z,1013.46
2018-09-20T10:28:28.925Z,1013.36
2018-09-20T10:29:28.933Z,1013.31
2018-09-20T10:30:28.946Z,1013.27
2018-09-20T10:31:28.984Z,1013.27
2018-09-20T10:32:28.974Z,1013.43
2018-09-20T10:33:28.981Z,1013.23
2018-09-20T10:34:28.993Z,1013.30
2018-09-20T10:35:29.004Z,1013.23
2018-09-20T10:36:29.017Z,1013.17
2018-09-20T10:37:29.033Z,1013.21
2018-09-20T10:38:29.044Z,1013.25
2018-09-20T10:39:29.056Z,1013.16
2018-09-20T10:40:29.068Z,1013.24
2018-09-20T10:41:29.075Z,1013.26
2018-09-20T10:42:29.087Z,1013.34
2018-09-20T10:43:29.098Z,1013.16
2018-09-20T10:44:29.109Z,1013.24
2018-09-20T10:45:29.124Z,1013.29
2018-09-20T10:46:29.137Z,1013.17
2018-09-20T10:47:29.144Z,1013.08
2018-09-20T10:48:29.155Z,1013.11
2018-09-20T10:49:29.170Z,1013.04
2018-09-20T10:50:29.182Z,1013.09
2018-09-20T10:51:29.216Z,1012.92
2018-09-20T10:52:29.218Z,1013.03
2018-09-20T10:53:29.212Z,1013.14
2018-09-20T10:54:29.251Z,1013.17
2018-09-20T10:55:29.234Z,1013.13
2018-09-20T10:56:29.244Z,1013.11
2018-09-20T10:57:29.259Z,1013.09
2018-09-20T10:58:29.270Z,1013.11
2018-09-20T10:59:29.280Z,1013.20
2018-09-20T11:00:29.290Z,1013.11
2018-09-20T11:01:29.296Z,1013.09
2018-09-20T11:02:29.310Z,1013.10
2018-09-20T11:03:29.399Z,1013.15
2018-09-20T11:04:29.334Z,1013.08
2018-09-20T11:05:29.337Z,1013.03
2018-09-20T11:06:29.348Z,1013.01
2018-09-20T11:07:29.359Z,1013.04
2018-09-20T11:08:29.371Z,1013.08
2018-09-20T11:09:29.386Z,1013.06
2018-09-20T11:10:29.426Z,1012.94
2018-09-20T11:11:29.409Z,1013.09
2018-09-20T11:12:29.421Z,1012.91
2018-09-20T11:13:29.427Z,1012.96
2018-09-20T11:14:29.438Z,1012.98
2018-09-20T11:15:29.452Z,1013.03
2018-09-20T11:16:29.462Z,1013.05
2018-09-20T11:17:29.474Z,1012.95
2018-09-20T11:18:29.486Z,1012.88
2018-09-20T11:19:29.492Z,1012.80
2018-09-20T11:20:29.504Z,1012.76
2018-09-20T11:21:29.517Z,1012.69
2018-09-20T11:22:29.529Z,1012.71
2018-09-20T11:23:29.540Z,1012.68
2018-09-20T11:24:29.550Z,1012.76
2018-09-20T11:25:29.554Z,1012.70
2018-09-20T11:26:29.565Z,1012.81
2018-09-20T11:27:29.576Z,1012.74
2018-09-20T11:28:29.584Z,1012.71
2018-09-20T11:29:29.598Z,1012.68
2018-09-20T11:30:29.607Z,1012.67
2018-09-20T11:31:29.614Z,1012.61
2018-09-20T11:32:29.624Z,1012.59
2018-09-20T11:33:29.626Z,1012.56
2018-09-20T11:34:29.634Z,1012.54
2018-09-20T11:35:29.648Z,1012.61
2018-09-20T11:36:29.656Z,1012.56
2018-09-20T11:37:29.663Z,1012.49
2018-09-20T11:38:29.665Z,1012.57
2018-09-20T11:39:29.672Z,1012.50
2018-09-20T11:40:29.681Z,1012.50
2018-09-20T11:41:29.692Z,1012.65
2018-09-20T11:42:29.698Z,1012.60
2018-09-20T11:43:29.705Z,1012.56
2018-09-20T11:44:29.712Z,1012.48
2018-09-20T11:45:29.713Z,1012.55
2018-09-20T11:46:29.765Z,1012.51
2018-09-20T11:47:29.726Z,1012.59
2018-09-20T11:48:29.733Z,1012.53
2018-09-20T11:49:29.741Z,1012.55
2018-09-20T11:50:29.749Z,1012.58
2018-09-20T11:51:29.751Z,1012.52
2018-09-20T11:52:29.757Z,1012.57
2018-09-20T11:53:29.766Z,1012.53
2018-09-20T11:54:29.771Z,1012.56
2018-09-20T11:55:29.779Z,1012.53
2018-09-20T11:56:29.784Z,1012.50
2018-09-20T11:57:29.784Z,1012.52
2018-09-20T11:58:29.789Z,1012.46
2018-09-20T11:59:29.798Z,1012.55
2018-09-20T12:00:29.801Z,1012.43
2018-09-20T12:01:29.810Z,1012.43
2018-09-20T12:02:29.814Z,1012.49
2018-09-20T12:03:29.821Z,1012.48
2018-09-20T12:04:29.827Z,1012.49
2018-09-20T12:05:29.827Z,1012.43
2018-09-20T12:06:29.832Z,1012.37